sensor_id;sensor_type;location;lat;lon;timestamp;pressure;altitude;pressure_sealevel;temperature;humidity
34185;BME280;20454;48.100;11.776;2023-03-14T00:00:13;93999.34;;;10.31;85.00
34185;BME280;20454;48.100;11.776;2023-03-14T00:02:40;93994.34;;;10.21;85.49
34185;BME280;20454;48.100;11.776;2023-03-14T00:05:07;93978.66;;;10.13;85.67
34185;BME280;20454;48.100;11.776;2023-03-14T00:07:38;93987.56;;;10.07;85.81
34185;BME280;20454;48.100;11.776;2023-03-14T00:10:09;93977.41;;;9.99;86.25
34185;BME280;20454;48.100;11.776;2023-03-14T00:12:35;93962.16;;;9.93;86.69
34185;BME280;20454;48.100;11.776;2023-03-14T00:15:01;93948.28;;;9.93;87.37
34185;BME280;20454;48.100;11.776;2023-03-14T00:17:31;93950.16;;;9.89;87.23
34185;BME280;20454;48.100;11.776;2023-03-14T00:19:56;93965.47;;;9.83;87.34
34185;BME280;20454;48.100;11.776;2023-03-14T00:22:22;93973.59;;;9.76;87.19
34185;BME280;20454;48.100;11.776;2023-03-14T00:24:48;93956.38;;;9.70;87.56
34185;BME280;20454;48.100;11.776;2023-03-14T00:27:14;93953.97;;;9.69;88.01
34185;BME280;20454;48.100;11.776;2023-03-14T00:29:40;93929.97;;;9.61;87.88
34185;BME280;20454;48.100;11.776;2023-03-14T00:32:07;93932.72;;;9.61;88.83
34185;BME280;20454;48.100;11.776;2023-03-14T00:34:33;93935.31;;;9.54;88.83
34185;BME280;20454;48.100;11.776;2023-03-14T00:36:59;93947.34;;;9.46;90.09
34185;BME280;20454;48.100;11.776;2023-03-14T00:39:25;93947.81;;;9.48;90.57
34185;BME280;20454;48.100;11.776;2023-03-14T00:41:50;93945.38;;;9.47;90.25
34185;BME280;20454;48.100;11.776;2023-03-14T00:44:16;93936.97;;;9.43;90.47
34185;BME280;20454;48.100;11.776;2023-03-14T00:46:42;93936.97;;;9.43;91.30
34185;BME280;20454;48.100;11.776;2023-03-14T00:49:08;93925.03;;;9.43;91.18
34185;BME280;20454;48.100;11.776;2023-03-14T00:51:33;93948.16;;;9.47;92.05
34185;BME280;20454;48.100;11.776;2023-03-14T00:54:00;93957.13;;;9.55;93.04
34185;BME280;20454;48.100;11.776;2023-03-14T00:56:26;93957.72;;;9.61;93.19
34185;BME280;20454;48.100;11.776;2023-03-14T00:58:56;93954.31;;;9.67;92.57
34185;BME280;20454;48.100;11.776;2023-03-14T01:01:22;93952.56;;;9.75;92.92
34185;BME280;20454;48.100;11.776;2023-03-14T01:03:52;93953.53;;;9.82;92.34
34185;BME280;20454;48.100;11.776;2023-03-14T01:06:29;93962.41;;;9.88;92.14
34185;BME280;20454;48.100;11.776;2023-03-14T01:08:57;93976.41;;;9.91;91.31
34185;BME280;20454;48.100;11.776;2023-03-14T01:11:29;93983.69;;;9.96;92.47
34185;BME280;20454;48.100;11.776;2023-03-14T01:13:56;93986.09;;;9.97;92.71
34185;BME280;20454;48.100;11.776;2023-03-14T01:16:24;93989.34;;;9.99;93.23
34185;BME280;20454;48.100;11.776;2023-03-14T01:18:51;93994.66;;;10.04;94.53
34185;BME280;20454;48.100;11.776;2023-03-14T01:21:23;93996.25;;;10.05;96.26
34185;BME280;20454;48.100;11.776;2023-03-14T01:23:50;93993.47;;;10.05;97.30
34185;BME280;20454;48.100;11.776;2023-03-14T01:26:20;93982.25;;;10.02;97.99
34185;BME280;20454;48.100;11.776;2023-03-14T01:28:47;93999.72;;;10.02;99.33
34185;BME280;20454;48.100;11.776;2023-03-14T01:31:13;93995.69;;;10.00;100.00
34185;BME280;20454;48.100;11.776;2023-03-14T01:33:40;94001.16;;;9.96;100.00
34185;BME280;20454;48.100;11.776;2023-03-14T01:36:07;94001.97;;;9.97;100.00
34185;BME280;20454;48.100;11.776;2023-03-14T01:38:34;93987.06;;;9.89;100.00
34185;BME280;20454;48.100;11.776;2023-03-14T01:41:01;93997.72;;;9.87;100.00
34185;BME280;20454;48.100;11.776;2023-03-14T01:43:28;93995.66;;;9.84;100.00
34185;BME280;20454;48.100;11.776;2023-03-14T01:48:36;93985.50;;;9.76;100.00
34185;BME280;20454;48.100;11.776;2023-03-14T01:51:05;93988.28;;;9.76;100.00
34185;BME280;20454;48.100;11.776;2023-03-14T01:53:33;93989.78;;;9.74;100.00
34185;BME280;20454;48.100;11.776;2023-03-14T01:55:59;93971.91;;;9.71;100.00
34185;BME280;20454;48.100;11.776;2023-03-14T01:58:27;93974.56;;;9.68;100.00
34185;BME280;20454;48.100;11.776;2023-03-14T02:00:56;93978.03;;;9.65;100.00
34185;BME280;20454;48.100;11.776;2023-03-14T02:03:23;93982.09;;;9.67;100.00
34185;BME280;20454;48.100;11.776;2023-03-14T02:05:51;93978.75;;;9.62;100.00
34185;BME280;20454;48.100;11.776;2023-03-14T02:08:22;93987.53;;;9.64;100.00
34185;BME280;20454;48.100;11.776;2023-03-14T02:10:49;93994.25;;;9.63;100.00
34185;BME280;20454;48.100;11.776;2023-03-14T02:13:18;93996.94;;;9.59;100.00
34185;BME280;20454;48.100;11.776;2023-03-14T02:15:45;93992.88;;;9.57;100.00
34185;BME280;20454;48.100;11.776;2023-03-14T02:18:11;94018.78;;;9.61;100.00
34185;BME280;20454;48.100;11.776;2023-03-14T02:20:53;94022.25;;;9.58;100.00
34185;BME280;20454;48.100;11.776;2023-03-14T02:26:06;94012.22;;;9.53;100.00
34185;BME280;20454;48.100;11.776;2023-03-14T02:28:38;94007.38;;;9.51;100.00
34185;BME280;20454;48.100;11.776;2023-03-14T02:31:04;94008.06;;;9.48;100.00
34185;BME280;20454;48.100;11.776;2023-03-14T02:33:31;94005.63;;;9.46;100.00
34185;BME280;20454;48.100;11.776;2023-03-14T02:36:09;93996.06;;;9.44;100.00
34185;BME280;20454;48.100;11.776;2023-03-14T02:39:08;93982.63;;;9.46;100.00
34185;BME280;20454;48.100;11.776;2023-03-14T02:41:39;93988.94;;;9.31;100.00
34185;BME280;20454;48.100;11.776;2023-03-14T02:44:05;93972.63;;;9.29;100.00
34185;BME280;20454;48.100;11.776;2023-03-14T02:46:31;93957.38;;;9.23;100.00
34185;BME280;20454;48.100;11.776;2023-03-14T02:48:58;93942.25;;;9.21;100.00
34185;BME280;20454;48.100;11.776;2023-03-14T02:51:26;93928.97;;;9.14;100.00
34185;BME280;20454;48.100;11.776;2023-03-14T02:53:51;93921.63;;;9.06;100.00
34185;BME280;20454;48.100;11.776;2023-03-14T02:56:17;93909.81;;;9.09;100.00
34185;BME280;20454;48.100;11.776;2023-03-14T02:58:43;93894.78;;;9.10;100.00
34185;BME280;20454;48.100;11.776;2023-03-14T05:02:56;93807.91;;;8.15;100.00
34185;BME280;20454;48.100;11.776;2023-03-14T05:05:22;93795.00;;;8.07;100.00
34185;BME280;20454;48.100;11.776;2023-03-14T05:07:48;93784.50;;;8.01;100.00
34185;BME280;20454;48.100;11.776;2023-03-14T05:10:13;93776.09;;;7.97;100.00
34185;BME280;20454;48.100;11.776;2023-03-14T05:12:39;93780.81;;;7.97;100.00
34185;BME280;20454;48.100;11.776;2023-03-14T05:15:05;93790.72;;;7.98;100.00
34185;BME280;20454;48.100;11.776;2023-03-14T05:17:32;93785.31;;;8.01;100.00
34185;BME280;20454;48.100;11.776;2023-03-14T05:19:58;93782.53;;;8.01;100.00
34185;BME280;20454;48.100;11.776;2023-03-14T05:22:24;93767.34;;;7.95;100.00
34185;BME280;20454;48.100;11.776;2023-03-14T05:24:50;93768.38;;;7.91;100.00
34185;BME280;20454;48.100;11.776;2023-03-14T05:27:15;93772.28;;;7.90;100.00
34185;BME280;20454;48.100;11.776;2023-03-14T05:29:41;93763.09;;;7.86;100.00
34185;BME280;20454;48.100;11.776;2023-03-14T05:32:06;93778.66;;;7.90;100.00
34185;BME280;20454;48.100;11.776;2023-03-14T05:34:32;93781.19;;;7.95;100.00
34185;BME280;20454;48.100;11.776;2023-03-14T05:36:58;93779.53;;;7.94;100.00
34185;BME280;20454;48.100;11.776;2023-03-14T05:39:23;93785.09;;;7.94;100.00
34185;BME280;20454;48.100;11.776;2023-03-14T05:41:49;93776.09;;;7.97;100.00
34185;BME280;20454;48.100;11.776;2023-03-14T06:44:46;93719.44;;;8.07;100.00
34185;BME280;20454;48.100;11.776;2023-03-14T06:47:12;93736.84;;;8.19;100.00
34185;BME280;20454;48.100;11.776;2023-03-14T06:49:37;93734.63;;;8.25;100.00
34185;BME280;20454;48.100;11.776;2023-03-14T06:52:03;93727.69;;;8.31;100.00
34185;BME280;20454;48.100;11.776;2023-03-14T06:54:29;93743.03;;;8.40;100.00
34185;BME280;20454;48.100;11.776;2023-03-14T06:56:54;93751.88;;;8.46;100.00
34185;BME280;20454;48.100;11.776;2023-03-14T06:59:20;93751.97;;;8.49;100.00
34185;BME280;20454;48.100;11.776;2023-03-14T07:01:46;93754.06;;;8.52;100.00
34185;BME280;20454;48.100;11.776;2023-03-14T07:04:13;93760.28;;;8.49;100.00
34185;BME280;20454;48.100;11.776;2023-03-14T07:06:39;93768.16;;;8.47;100.00
34185;BME280;20454;48.100;11.776;2023-03-14T07:09:12;93762.63;;;8.47;100.00
34185;BME280;20454;48.100;11.776;2023-03-14T07:11:39;93749.22;;;8.49;100.00
34185;BME280;20454;48.100;11.776;2023-03-14T07:14:04;93753.97;;;8.49;100.00
34185;BME280;20454;48.100;11.776;2023-03-14T07:16:30;93756.72;;;8.49;100.00
34185;BME280;20454;48.100;11.776;2023-03-14T07:18:59;93744.97;;;8.40;100.00
34185;BME280;20454;48.100;11.776;2023-03-14T07:21:25;93754.19;;;8.44;100.00
34185;BME280;20454;48.100;11.776;2023-03-14T07:23:51;93753.47;;;8.47;100.00
34185;BME280;20454;48.100;11.776;2023-03-14T07:26:16;93752.59;;;8.43;100.00
34185;BME280;20454;48.100;11.776;2023-03-14T07:28:42;93759.03;;;8.47;100.00
34185;BME280;20454;48.100;11.776;2023-03-14T07:31:08;93764.66;;;8.50;100.00
34185;BME280;20454;48.100;11.776;2023-03-14T07:33:34;93767.00;;;8.48;100.00
34185;BME280;20454;48.100;11.776;2023-03-14T07:35:59;93759.13;;;8.50;100.00
34185;BME280;20454;48.100;11.776;2023-03-14T07:38:25;93757.63;;;8.53;100.00
34185;BME280;20454;48.100;11.776;2023-03-14T07:40:58;93748.53;;;8.52;100.00
34185;BME280;20454;48.100;11.776;2023-03-14T07:43:24;93744.50;;;8.50;100.00
34185;BME280;20454;48.100;11.776;2023-03-14T07:45:50;93750.00;;;8.62;100.00
34185;BME280;20454;48.100;11.776;2023-03-14T07:48:15;93745.81;;;8.68;100.00
34185;BME280;20454;48.100;11.776;2023-03-14T07:50:41;93741.50;;;8.70;100.00
34185;BME280;20454;48.100;11.776;2023-03-14T07:53:07;93745.59;;;8.88;99.46
34185;BME280;20454;48.100;11.776;2023-03-14T07:55:32;93745.97;;;9.02;93.10
34185;BME280;20454;48.100;11.776;2023-03-14T07:57:58;93748.69;;;9.14;92.47
34185;BME280;20454;48.100;11.776;2023-03-14T08:18:32;93735.59;;;9.76;82.85
34185;BME280;20454;48.100;11.776;2023-03-14T08:20:58;93741.69;;;9.82;84.10
34185;BME280;20454;48.100;11.776;2023-03-14T08:23:24;93744.09;;;9.83;82.92
34185;BME280;20454;48.100;11.776;2023-03-14T08:25:50;93743.38;;;9.86;82.31
34185;BME280;20454;48.100;11.776;2023-03-14T08:28:16;93743.09;;;9.91;82.11
34185;BME280;20454;48.100;11.776;2023-03-14T08:30:42;93743.25;;;9.98;82.39
34185;BME280;20454;48.100;11.776;2023-03-14T08:33:08;93739.34;;;9.99;82.40
34185;BME280;20454;48.100;11.776;2023-03-14T08:35:33;93749.63;;;9.99;81.81
34185;BME280;20454;48.100;11.776;2023-03-14T08:37:59;93763.44;;;10.11;81.56
34185;BME280;20454;48.100;11.776;2023-03-14T08:40:25;93758.06;;;10.18;81.36
34185;BME280;20454;48.100;11.776;2023-03-14T08:42:50;93768.97;;;10.26;81.50
34185;BME280;20454;48.100;11.776;2023-03-14T08:45:16;93767.22;;;10.37;81.74
34185;BME280;20454;48.100;11.776;2023-03-14T08:47:43;93768.91;;;10.42;80.74
34185;BME280;20454;48.100;11.776;2023-03-14T08:50:10;93779.47;;;10.52;79.83
34185;BME280;20454;48.100;11.776;2023-03-14T08:52:36;93785.47;;;10.54;78.62
34185;BME280;20454;48.100;11.776;2023-03-14T08:55:04;93778.84;;;10.43;78.73
34185;BME280;20454;48.100;11.776;2023-03-14T08:57:30;93779.25;;;10.41;77.02
34185;BME280;20454;48.100;11.776;2023-03-14T08:59:56;93789.53;;;10.41;77.65
34185;BME280;20454;48.100;11.776;2023-03-14T09:02:23;93794.31;;;10.40;79.13
34185;BME280;20454;48.100;11.776;2023-03-14T09:04:52;93793.50;;;10.40;78.74
34185;BME280;20454;48.100;11.776;2023-03-14T09:07:18;93785.97;;;10.40;78.82
34185;BME280;20454;48.100;11.776;2023-03-14T09:09:44;93791.22;;;10.45;82.21
34185;BME280;20454;48.100;11.776;2023-03-14T09:12:11;93792.66;;;10.39;84.20
34185;BME280;20454;48.100;11.776;2023-03-14T09:14:36;93786.16;;;10.32;82.92
34185;BME280;20454;48.100;11.776;2023-03-14T09:17:03;93786.31;;;10.39;78.13
34185;BME280;20454;48.100;11.776;2023-03-14T09:19:29;93791.88;;;10.39;78.79
34185;BME280;20454;48.100;11.776;2023-03-14T09:21:55;93787.03;;;10.36;80.40
34185;BME280;20454;48.100;11.776;2023-03-14T09:24:21;93790.72;;;10.40;80.56
34185;BME280;20454;48.100;11.776;2023-03-14T09:26:46;93791.88;;;10.39;80.04
34185;BME280;20454;48.100;11.776;2023-03-14T09:29:12;93789.38;;;10.34;79.44
34185;BME280;20454;48.100;11.776;2023-03-14T09:31:38;93792.97;;;10.34;79.30
34185;BME280;20454;48.100;11.776;2023-03-14T09:34:03;93796.09;;;10.33;80.27
34185;BME280;20454;48.100;11.776;2023-03-14T09:36:30;93791.72;;;10.32;79.52
34185;BME280;20454;48.100;11.776;2023-03-14T09:38:55;93790.47;;;10.29;79.61
34185;BME280;20454;48.100;11.776;2023-03-14T09:41:23;93789.56;;;10.25;80.84
34185;BME280;20454;48.100;11.776;2023-03-14T09:46:25;93780.28;;;10.18;87.09
34185;BME280;20454;48.100;11.776;2023-03-14T09:48:51;93780.97;;;10.15;88.93
34185;BME280;20454;48.100;11.776;2023-03-14T09:51:18;93763.28;;;10.04;89.89
34185;BME280;20454;48.100;11.776;2023-03-14T09:53:47;93763.72;;;10.06;91.03
34185;BME280;20454;48.100;11.776;2023-03-14T09:56:24;93767.66;;;10.05;91.38
34185;BME280;20454;48.100;11.776;2023-03-14T09:58:54;93757.00;;;10.07;92.23
34185;BME280;20454;48.100;11.776;2023-03-14T10:01:25;93767.41;;;10.10;93.39
34185;BME280;20454;48.100;11.776;2023-03-14T10:03:53;93761.47;;;10.11;93.28
34185;BME280;20454;48.100;11.776;2023-03-14T10:06:19;93753.59;;;10.13;93.47
34185;BME280;20454;48.100;11.776;2023-03-14T10:08:46;93747.81;;;10.22;93.12
34185;BME280;20454;48.100;11.776;2023-03-14T10:11:17;93739.94;;;10.24;92.52
34185;BME280;20454;48.100;11.776;2023-03-14T10:14:03;93754.84;;;10.35;92.27
34185;BME280;20454;48.100;11.776;2023-03-14T10:16:38;93745.88;;;10.41;90.82
34185;BME280;20454;48.100;11.776;2023-03-14T10:19:09;93748.44;;;10.50;91.10
34185;BME280;20454;48.100;11.776;2023-03-14T10:21:37;93748.31;;;10.62;90.33
34185;BME280;20454;48.100;11.776;2023-03-14T10:24:20;93761.03;;;10.63;86.89
34185;BME280;20454;48.100;11.776;2023-03-14T10:27:27;93755.75;;;10.77;85.45
34185;BME280;20454;48.100;11.776;2023-03-14T10:29:59;93743.59;;;10.85;83.19
34185;BME280;20454;48.100;11.776;2023-03-14T10:35:19;93754.03;;;11.29;84.66
34185;BME280;20454;48.100;11.776;2023-03-14T10:38:01;93750.69;;;11.62;83.63
34185;BME280;20454;48.100;11.776;2023-03-14T10:40:32;93742.22;;;12.03;81.83
34185;BME280;20454;48.100;11.776;2023-03-14T10:42:59;93727.97;;;12.34;79.96
34185;BME280;20454;48.100;11.776;2023-03-14T10:45:29;93740.50;;;12.77;76.45
34185;BME280;20454;48.100;11.776;2023-03-14T10:47:58;93732.84;;;13.33;72.52
34185;BME280;20454;48.100;11.776;2023-03-14T10:50:27;93736.34;;;13.59;72.24
34185;BME280;20454;48.100;11.776;2023-03-14T10:52:54;93724.94;;;13.82;72.27
34185;BME280;20454;48.100;11.776;2023-03-14T10:55:20;93734.69;;;13.98;69.29
34185;BME280;20454;48.100;11.776;2023-03-14T10:57:46;93739.06;;;14.43;70.15
34185;BME280;20454;48.100;11.776;2023-03-14T11:00:22;93743.81;;;14.35;63.37
34185;BME280;20454;48.100;11.776;2023-03-14T11:03:11;93737.31;;;14.21;64.84
34185;BME280;20454;48.100;11.776;2023-03-14T11:05:59;93732.59;;;14.32;61.55
34185;BME280;20454;48.100;11.776;2023-03-14T11:11:22;93728.50;;;14.19;62.20
34185;BME280;20454;48.100;11.776;2023-03-14T11:14:22;93742.53;;;13.82;64.87
34185;BME280;20454;48.100;11.776;2023-03-14T11:17:07;93731.09;;;13.54;66.15
34185;BME280;20454;48.100;11.776;2023-03-14T11:25:47;93737.53;;;12.63;63.33
34185;BME280;20454;48.100;11.776;2023-03-14T11:28:31;93734.09;;;12.43;67.08
34185;BME280;20454;48.100;11.776;2023-03-14T11:31:29;93730.25;;;12.55;66.95
34185;BME280;20454;48.100;11.776;2023-03-14T11:34:17;93733.72;;;12.45;66.03
34185;BME280;20454;48.100;11.776;2023-03-14T11:39:40;93727.09;;;12.56;67.09
34185;BME280;20454;48.100;11.776;2023-03-14T11:42:12;93726.06;;;12.68;65.87
34185;BME280;20454;48.100;11.776;2023-03-14T11:44:39;93726.88;;;12.72;65.45
34185;BME280;20454;48.100;11.776;2023-03-14T11:47:20;93712.78;;;12.91;65.28
34185;BME280;20454;48.100;11.776;2023-03-14T11:49:51;93716.63;;;13.09;65.52
34185;BME280;20454;48.100;11.776;2023-03-14T11:52:30;93699.13;;;13.15;62.00
34185;BME280;20454;48.100;11.776;2023-03-14T11:57:31;93697.31;;;13.30;57.01
34185;BME280;20454;48.100;11.776;2023-03-14T12:03:09;93698.22;;;13.41;54.60
34185;BME280;20454;48.100;11.776;2023-03-14T12:05:38;93696.91;;;13.28;55.56
34185;BME280;20454;48.100;11.776;2023-03-14T12:13:04;93691.53;;;13.12;57.82
34185;BME280;20454;48.100;11.776;2023-03-14T12:15:30;93689.63;;;13.20;55.44
34185;BME280;20454;48.100;11.776;2023-03-14T12:17:56;93681.41;;;13.37;54.50
34185;BME280;20454;48.100;11.776;2023-03-14T12:20:23;93685.94;;;13.49;52.44
34185;BME280;20454;48.100;11.776;2023-03-14T12:23:01;93679.75;;;13.73;54.35
34185;BME280;20454;48.100;11.776;2023-03-14T12:25:28;93680.00;;;14.01;54.06
34185;BME280;20454;48.100;11.776;2023-03-14T12:30:41;93684.69;;;14.44;52.80
34185;BME280;20454;48.100;11.776;2023-03-14T12:43:37;93682.50;;;14.16;52.83
34185;BME280;20454;48.100;11.776;2023-03-14T12:46:24;93671.31;;;14.13;52.94
34185;BME280;20454;48.100;11.776;2023-03-14T12:48:54;93679.78;;;14.23;53.36
34185;BME280;20454;48.100;11.776;2023-03-14T12:51:28;93682.03;;;14.04;54.86
34185;BME280;20454;48.100;11.776;2023-03-14T12:54:13;93682.19;;;13.74;55.22
34185;BME280;20454;48.100;11.776;2023-03-14T13:04:34;93692.50;;;13.70;54.74
34185;BME280;20454;48.100;11.776;2023-03-14T13:07:02;93697.06;;;13.89;53.98
34185;BME280;20454;48.100;11.776;2023-03-14T13:09:34;93691.13;;;14.48;53.20
34185;BME280;20454;48.100;11.776;2023-03-14T13:12:14;93681.81;;;15.04;50.84
34185;BME280;20454;48.100;11.776;2023-03-14T13:14:45;93698.94;;;14.85;50.25
34185;BME280;20454;48.100;11.776;2023-03-14T13:17:15;93699.72;;;14.79;51.48
34185;BME280;20454;48.100;11.776;2023-03-14T13:19:43;93689.56;;;14.50;52.11
34185;BME280;20454;48.100;11.776;2023-03-14T13:22:27;93699.59;;;14.04;53.54
34185;BME280;20454;48.100;11.776;2023-03-14T13:25:02;93703.69;;;13.70;54.93
34185;BME280;20454;48.100;11.776;2023-03-14T13:27:30;93710.00;;;13.60;55.59
34185;BME280;20454;48.100;11.776;2023-03-14T13:29:56;93710.88;;;13.71;53.74
34185;BME280;20454;48.100;11.776;2023-03-14T13:32:27;93727.31;;;13.36;53.50
34185;BME280;20454;48.100;11.776;2023-03-14T13:34:56;93712.06;;;13.30;54.90
34185;BME280;20454;48.100;11.776;2023-03-14T13:37:23;93734.97;;;13.10;54.48
34185;BME280;20454;48.100;11.776;2023-03-14T13:39:51;93737.06;;;12.87;55.34
34185;BME280;20454;48.100;11.776;2023-03-14T13:42:17;93741.41;;;12.84;56.25
34185;BME280;20454;48.100;11.776;2023-03-14T13:44:43;93747.47;;;12.90;56.52
34185;BME280;20454;48.100;11.776;2023-03-14T13:47:18;93755.88;;;12.93;56.99
34185;BME280;20454;48.100;11.776;2023-03-14T13:49:45;93758.84;;;13.04;57.34
34185;BME280;20454;48.100;11.776;2023-03-14T13:52:36;93763.75;;;12.84;56.99
34185;BME280;20454;48.100;11.776;2023-03-14T13:55:03;93790.69;;;12.73;58.27
34185;BME280;20454;48.100;11.776;2023-03-14T13:57:51;93779.88;;;12.42;57.89
34185;BME280;20454;48.100;11.776;2023-03-14T14:00:27;93788.50;;;12.34;59.59
34185;BME280;20454;48.100;11.776;2023-03-14T14:02:57;93797.34;;;12.13;60.19
34185;BME280;20454;48.100;11.776;2023-03-14T14:05:26;93808.00;;;12.08;61.00
34185;BME280;20454;48.100;11.776;2023-03-14T14:07:52;93814.69;;;11.81;63.25
34185;BME280;20454;48.100;11.776;2023-03-14T14:10:18;93817.00;;;11.56;65.73
34185;BME280;20454;48.100;11.776;2023-03-14T14:12:54;93833.50;;;11.46;68.26
34185;BME280;20454;48.100;11.776;2023-03-14T14:15:26;93835.28;;;11.35;70.88
34185;BME280;20454;48.100;11.776;2023-03-14T14:17:57;93841.59;;;10.94;73.53
34185;BME280;20454;48.100;11.776;2023-03-14T14:20:41;93846.59;;;10.69;75.53
34185;BME280;20454;48.100;11.776;2023-03-14T14:23:19;93868.88;;;10.38;75.24
34185;BME280;20454;48.100;11.776;2023-03-14T14:25:53;93867.22;;;10.18;77.77
34185;BME280;20454;48.100;11.776;2023-03-14T14:28:27;93867.13;;;9.99;78.77
34185;BME280;20454;48.100;11.776;2023-03-14T14:31:22;93882.84;;;9.80;81.60
34185;BME280;20454;48.100;11.776;2023-03-14T14:36:39;93909.25;;;9.58;86.62
34185;BME280;20454;48.100;11.776;2023-03-14T14:39:20;93920.81;;;9.33;88.00
34185;BME280;20454;48.100;11.776;2023-03-14T14:41:48;93924.31;;;9.18;90.31
34185;BME280;20454;48.100;11.776;2023-03-14T14:44:17;93936.50;;;9.02;89.89
34185;BME280;20454;48.100;11.776;2023-03-14T14:46:44;93950.09;;;8.67;89.57
34185;BME280;20454;48.100;11.776;2023-03-14T14:49:12;93953.47;;;8.49;92.09
34185;BME280;20454;48.100;11.776;2023-03-14T14:51:43;93973.31;;;8.39;94.80
34185;BME280;20454;48.100;11.776;2023-03-14T14:54:21;93966.97;;;8.26;94.16
34185;BME280;20454;48.100;11.776;2023-03-14T14:57:02;93986.69;;;8.25;96.04
34185;BME280;20454;48.100;11.776;2023-03-14T14:59:28;93981.53;;;8.23;96.70
34185;BME280;20454;48.100;11.776;2023-03-14T15:01:59;93987.72;;;8.20;97.82
34185;BME280;20454;48.100;11.776;2023-03-14T15:04:25;93988.41;;;8.17;95.72
34185;BME280;20454;48.100;11.776;2023-03-14T15:06:51;93986.78;;;8.16;93.59
34185;BME280;20454;48.100;11.776;2023-03-14T15:09:18;94003.56;;;8.20;91.75
34185;BME280;20454;48.100;11.776;2023-03-14T15:11:46;94016.19;;;8.09;92.40
34185;BME280;20454;48.100;11.776;2023-03-14T15:14:12;94013.63;;;8.04;93.47
34185;BME280;20454;48.100;11.776;2023-03-14T15:16:37;94017.34;;;8.08;92.23
34185;BME280;20454;48.100;11.776;2023-03-14T15:19:10;94018.59;;;7.98;93.30
34185;BME280;20454;48.100;11.776;2023-03-14T15:21:38;94027.97;;;8.06;92.98
34185;BME280;20454;48.100;11.776;2023-03-14T15:24:04;94026.69;;;8.03;92.79
34185;BME280;20454;48.100;11.776;2023-03-14T15:26:31;94048.38;;;8.13;92.33
34185;BME280;20454;48.100;11.776;2023-03-14T15:28:56;94037.75;;;8.15;90.12
34185;BME280;20454;48.100;11.776;2023-03-14T15:31:22;94029.72;;;8.22;89.87
34185;BME280;20454;48.100;11.776;2023-03-14T15:33:48;94038.53;;;8.24;89.81
34185;BME280;20454;48.100;11.776;2023-03-14T15:38:51;94057.41;;;8.10;89.86
34185;BME280;20454;48.100;11.776;2023-03-14T15:41:18;94063.59;;;8.07;89.22
34185;BME280;20454;48.100;11.776;2023-03-14T15:43:44;94072.84;;;8.11;88.42
34185;BME280;20454;48.100;11.776;2023-03-14T15:46:10;94085.22;;;8.14;88.54
34185;BME280;20454;48.100;11.776;2023-03-14T15:48:36;94088.66;;;8.11;87.89
34185;BME280;20454;48.100;11.776;2023-03-14T16:40:16;94199.88;;;7.51;76.04
34185;BME280;20454;48.100;11.776;2023-03-14T16:42:41;94266.25;;;7.60;74.13
34185;BME280;20454;48.100;11.776;2023-03-14T16:45:07;94216.84;;;7.70;70.46
34185;BME280;20454;48.100;11.776;2023-03-14T16:47:33;94235.94;;;7.63;70.16
34185;BME280;20454;48.100;11.776;2023-03-14T16:49:59;94235.94;;;7.63;67.47
34185;BME280;20454;48.100;11.776;2023-03-14T16:52:27;94231.31;;;7.47;66.46
34185;BME280;20454;48.100;11.776;2023-03-14T16:54:52;94252.72;;;7.58;66.34
34185;BME280;20454;48.100;11.776;2023-03-14T16:57:18;94246.13;;;7.51;67.83
34185;BME280;20454;48.100;11.776;2023-03-14T16:59:44;94264.03;;;7.45;70.31
34185;BME280;20454;48.100;11.776;2023-03-14T17:02:10;94260.47;;;7.36;70.96
34185;BME280;20454;48.100;11.776;2023-03-14T17:04:39;94281.13;;;7.47;71.75
34185;BME280;20454;48.100;11.776;2023-03-14T17:07:04;94279.59;;;7.20;70.96
34185;BME280;20454;48.100;11.776;2023-03-14T17:09:30;94309.81;;;7.25;73.53
34185;BME280;20454;48.100;11.776;2023-03-14T17:11:56;94334.78;;;7.17;73.79
34185;BME280;20454;48.100;11.776;2023-03-14T17:14:22;94331.53;;;7.06;73.65
34185;BME280;20454;48.100;11.776;2023-03-14T17:16:48;94341.94;;;7.01;74.85
34185;BME280;20454;48.100;11.776;2023-03-14T17:19:15;94342.41;;;7.11;71.37
34185;BME280;20454;48.100;11.776;2023-03-14T17:21:40;94360.66;;;7.12;71.83
34185;BME280;20454;48.100;11.776;2023-03-14T17:24:06;94353.31;;;7.16;70.48
34185;BME280;20454;48.100;11.776;2023-03-14T17:26:32;94371.50;;;7.34;67.21
34185;BME280;20454;48.100;11.776;2023-03-14T19:51:35;94563.91;;;5.54;75.83
34185;BME280;20454;48.100;11.776;2023-03-14T19:54:01;94573.31;;;5.53;76.08
34185;BME280;20454;48.100;11.776;2023-03-14T19:56:29;94571.88;;;5.55;76.09
34185;BME280;20454;48.100;11.776;2023-03-14T19:58:55;94568.47;;;5.58;76.64
34185;BME280;20454;48.100;11.776;2023-03-14T20:01:21;94568.44;;;5.72;75.74
34185;BME280;20454;48.100;11.776;2023-03-14T20:06:16;94567.22;;;5.64;76.99
34185;BME280;20454;48.100;11.776;2023-03-14T20:08:42;94569.50;;;5.62;77.33
34185;BME280;20454;48.100;11.776;2023-03-14T20:11:09;94569.69;;;5.66;77.52
34185;BME280;20454;48.100;11.776;2023-03-14T20:13:35;94575.19;;;5.66;78.00
34185;BME280;20454;48.100;11.776;2023-03-14T20:16:05;94572.31;;;5.71;77.67
34185;BME280;20454;48.100;11.776;2023-03-14T20:18:31;94573.25;;;5.66;77.75
34185;BME280;20454;48.100;11.776;2023-03-14T20:20:58;94579.66;;;5.75;77.33
34185;BME280;20454;48.100;11.776;2023-03-14T20:23:23;94583.03;;;5.72;77.78
34185;BME280;20454;48.100;11.776;2023-03-14T20:25:57;94586.44;;;5.69;77.97
34185;BME280;20454;48.100;11.776;2023-03-14T20:28:24;94597.00;;;5.76;78.31
34185;BME280;20454;48.100;11.776;2023-03-14T20:30:50;94599.47;;;5.77;78.27
34185;BME280;20454;48.100;11.776;2023-03-14T20:33:16;94590.69;;;5.75;78.46
34185;BME280;20454;48.100;11.776;2023-03-14T20:35:52;94592.00;;;5.78;78.56